Time;durP1;ratioP1;P1;durP2;ratioP2;P2;SDS_P1;SDS_P2;PMS_P1;PMS_P2;Temp;Humidity;BMP_temperature;BMP_pressure;BME280_temperature;BME280_humidity;BME280_pressure;Samples;Min_cycle;Max_cycle;Signal;HPM_P1;HPM_P2
2022/09/16 00:00:34;;;;;;;2.00;1.10;;;;;;;18.87;53.48;91739.50;5032771;28;20102;-75
2022/09/16 00:03:00;;;;;;;2.40;1.30;;;;;;;18.85;53.38;91744.38;5050883;28;20440;-76
2022/09/16 00:05:26;;;;;;;2.25;1.10;;;;;;;18.82;53.62;91737.13;5037265;28;20033;-76
2022/09/16 00:07:53;;;;;;;2.08;1.13;;;;;;;18.79;53.65;91739.72;5031073;28;20095;-76
2022/09/16 00:10:18;;;;;;;4.15;1.23;;;;;;;18.83;54.81;91736.00;5053712;28;20029;-76
2022/09/16 00:12:44;;;;;;;2.85;1.08;;;;;;;18.61;57.24;91739.41;5067888;28;20052;-76
2022/09/16 00:15:10;;;;;;;3.03;1.08;;;;;;;18.43;57.96;91739.88;5033139;28;20037;-76
2022/09/16 00:17:36;;;;;;;3.88;1.38;;;;;;;18.28;58.90;91744.16;5033111;28;20116;-76
2022/09/16 00:20:02;;;;;;;2.28;0.98;;;;;;;18.18;56.91;91743.97;5056899;28;20032;-76
2022/09/16 00:22:28;;;;;;;1.85;1.00;;;;;;;18.18;57.50;91741.31;5049921;28;20516;-77
2022/09/16 00:24:53;;;;;;;3.08;1.30;;;;;;;18.13;57.34;91741.63;5051385;28;20052;-77
2022/09/16 00:27:19;;;;;;;3.17;1.15;;;;;;;18.05;57.69;91741.47;5017468;28;20115;-77
2022/09/16 00:29:45;;;;;;;2.50;1.00;;;;;;;17.99;57.82;91739.44;5033206;28;20021;-76
2022/09/16 00:32:11;;;;;;;2.22;1.10;;;;;;;17.97;56.99;91737.16;5070577;28;20043;-76
2022/09/16 00:34:36;;;;;;;2.17;1.17;;;;;;;17.91;58.29;91732.50;5056198;28;20033;-76
2022/09/16 00:37:02;;;;;;;1.50;0.88;;;;;;;17.92;57.66;91737.41;5058197;28;20063;-76
2022/09/16 00:39:28;;;;;;;2.50;0.98;;;;;;;17.92;57.24;91742.72;5019625;28;20037;-75
2022/09/16 00:41:54;;;;;;;1.27;0.88;;;;;;;17.92;57.17;91737.41;5049195;28;20040;-76
2022/09/16 00:44:57;;;;;;;2.00;0.88;;;;;;;17.98;56.47;91738.69;5056016;28;20467;-76
2022/09/16 00:47:29;;;;;;;1.25;0.90;;;;;;;18.02;56.30;91739.53;5049125;28;20029;-76
2022/09/16 00:50:02;;;;;;;2.17;1.00;;;;;;;18.05;56.22;91738.81;5052228;28;20033;-75
2022/09/16 00:52:29;;;;;;;3.08;1.27;;;;;;;18.05;56.30;91736.16;5049170;28;20128;-76
2022/09/16 00:54:55;;;;;;;2.28;0.90;;;;;;;17.99;57.36;91732.28;5016558;28;20048;-76
2022/09/16 00:57:21;;;;;;;2.60;1.00;;;;;;;17.89;58.19;91732.84;5016536;28;20036;-77
2022/09/16 00:59:54;;;;;;;1.83;1.00;;;;;;;17.80;58.34;91734.91;5052914;28;20040;-76
2022/09/16 01:02:21;;;;;;;2.38;1.00;;;;;;;17.65;59.35;91731.19;5038841;28;20028;-76
2022/09/16 01:04:54;;;;;;;2.92;0.98;;;;;;;17.53;59.99;91734.75;5036199;28;20036;-75
2022/09/16 01:07:33;;;;;;;1.50;0.95;;;;;;;17.42;60.34;91731.13;5052497;28;20075;-77
2022/09/16 01:09:59;;;;;;;4.47;1.08;;;;;;;17.34;60.25;91729.41;5053805;28;20461;-77
2022/09/16 01:12:28;;;;;;;1.70;0.90;;;;;;;17.33;59.17;91730.53;5047675;28;20048;-76
2022/09/16 01:14:55;;;;;;;3.17;0.90;;;;;;;17.43;57.49;91730.00;5048946;28;20469;-76
2022/09/16 01:17:32;;;;;;;0.95;0.65;;;;;;;17.50;57.65;91729.41;5019043;28;20056;-77
2022/09/16 01:20:24;;;;;;;1.55;0.77;;;;;;;17.52;57.42;91729.78;5035228;28;20120;-77
2022/09/16 01:23:00;;;;;;;3.67;0.90;;;;;;;17.53;57.43;91721.53;5016236;28;20045;-76
2022/09/16 01:25:26;;;;;;;1.90;0.90;;;;;;;17.51;58.38;91734.31;5035476;28;20291;-76
2022/09/16 01:28:36;;;;;;;1.83;0.88;;;;;;;17.53;58.16;91732.09;5053091;28;20029;-76
2022/09/16 01:31:22;;;;;;;1.17;0.80;;;;;;;17.62;57.23;91723.97;5018130;28;20048;-75
2022/09/16 01:33:53;;;;;;;2.05;0.90;;;;;;;17.53;57.06;91726.81;5065712;28;20037;-76
2022/09/16 01:36:19;;;;;;;1.45;1.00;;;;;;;17.45;57.99;91725.13;5051672;28;20395;-76
2022/09/16 01:39:07;;;;;;;0.80;0.70;;;;;;;17.42;57.87;91720.53;5051541;28;20094;-76
2022/09/16 01:41:43;;;;;;;2.17;0.90;;;;;;;17.38;56.83;91715.19;5052788;28;20041;-76
2022/09/16 01:44:18;;;;;;;1.90;1.27;;;;;;;17.43;56.01;91716.78;5044716;28;20613;-75
2022/09/16 01:46:50;;;;;;;1.85;0.90;;;;;;;17.44;56.02;91724.34;5031965;28;20030;-76
2022/09/16 01:49:45;;;;;;;1.08;0.88;;;;;;;17.55;55.43;91714.00;5052059;28;20028;-76
2022/09/16 01:52:33;;;;;;;1.10;0.80;;;;;;;17.64;55.26;91708.50;5041695;28;20026;-75
2022/09/16 01:55:13;;;;;;;1.60;0.90;;;;;;;17.73;54.18;91719.66;5069208;28;20036;-75
2022/09/16 01:57:59;;;;;;;1.73;1.00;;;;;;;17.93;52.46;91712.50;5073103;28;20266;-75
2022/09/16 02:00:25;;;;;;;1.77;1.00;;;;;;;18.02;52.07;91707.00;5065149;28;20398;-75
2022/09/16 02:02:58;;;;;;;1.75;1.00;;;;;;;17.92;54.72;91716.25;5052854;28;20070;-74
2022/09/16 02:05:29;;;;;;;1.33;0.88;;;;;;;17.85;53.48;91708.16;5018084;28;20044;-76
2022/09/16 02:08:01;;;;;;;2.10;1.20;;;;;;;17.85;51.08;91710.81;5052550;28;20044;-75
2022/09/16 02:10:32;;;;;;;2.22;1.13;;;;;;;17.72;55.13;91701.47;5050114;28;20029;-75
2022/09/16 02:13:04;;;;;;;2.80;1.40;;;;;;;17.64;53.64;91700.56;5036375;28;20033;-75
2022/09/16 02:15:32;;;;;;;2.38;1.20;;;;;;;17.76;51.07;91697.00;5052348;28;20498;-75
2022/09/16 02:18:10;;;;;;;2.20;1.10;;;;;;;17.85;50.72;91700.22;5033818;28;20407;-76
2022/09/16 02:20:41;;;;;;;2.47;1.35;;;;;;;17.89;50.62;91707.13;5035243;28;20028;-76
2022/09/16 02:23:14;;;;;;;1.63;1.05;;;;;;;18.13;52.68;91710.59;5036009;28;20112;-75
2022/09/16 02:25:42;;;;;;;2.22;1.15;;;;;;;18.04;53.54;91710.06;5072436;28;20157;-76
2022/09/16 02:28:14;;;;;;;1.70;1.10;;;;;;;17.85;54.37;91703.63;5060636;28;20071;-76
2022/09/16 02:30:49;;;;;;;1.88;1.02;;;;;;;17.83;54.88;91702.47;5032194;28;20120;-76
2022/09/16 02:33:16;;;;;;;3.42;1.10;;;;;;;17.74;55.70;91699.22;5052241;28;20040;-76
2022/09/16 02:35:46;;;;;;;5.22;1.30;;;;;;;17.63;56.31;91701.66;5034227;28;20136;-76
2022/09/16 02:38:22;;;;;;;2.30;1.40;;;;;;;17.73;53.98;91693.19;5053476;28;20055;-76
2022/09/16 02:40:57;;;;;;;2.10;1.33;;;;;;;17.71;54.20;91694.66;5070525;28;20051;-76
2022/09/16 02:43:24;;;;;;;2.60;1.40;;;;;;;17.63;54.31;91696.38;5054809;28;20037;-76
2022/09/16 02:46:09;;;;;;;2.60;1.35;;;;;;;17.58;54.51;91697.41;5034196;28;20029;-76
2022/09/16 02:48:53;;;;;;;2.45;1.30;;;;;;;17.58;53.92;91700.06;5052159;28;20033;-76
2022/09/16 02:51:27;;;;;;;3.13;1.40;;;;;;;17.60;54.00;91697.09;5070978;28;20402;-76
2022/09/16 02:54:13;;;;;;;2.88;1.30;;;;;;;17.58;53.60;91696.66;5037440;28;20112;-76
2022/09/16 02:56:40;;;;;;;2.90;1.50;;;;;;;17.57;53.53;91703.09;5043582;28;20074;-76
2022/09/16 02:59:09;;;;;;;2.55;1.48;;;;;;;17.55;53.39;91697.38;5027881;28;20044;-76
2022/09/16 03:01:40;;;;;;;2.72;1.50;;;;;;;17.55;52.33;91698.13;5051443;28;20040;-76
2022/09/16 03:04:07;;;;;;;6.22;1.70;;;;;;;17.55;51.61;91692.84;5044878;28;20032;-76
2022/09/16 03:06:35;;;;;;;3.33;1.65;;;;;;;17.55;51.66;91692.06;5071096;28;20032;-76
2022/09/16 03:09:03;;;;;;;2.38;1.40;;;;;;;17.72;51.29;91689.00;5052366;28;20039;-76
2022/09/16 03:11:57;;;;;;;4.05;1.50;;;;;;;17.75;52.25;91684.91;5032573;28;20037;-76
2022/09/16 03:14:44;;;;;;;2.67;1.45;;;;;;;17.76;50.67;91683.78;5043689;28;20040;-76
2022/09/16 03:17:50;;;;;;;2.50;1.40;;;;;;;17.88;50.89;91688.97;5051027;28;20120;-76
2022/09/16 03:20:35;;;;;;;3.08;1.45;;;;;;;17.92;50.81;91681.06;5036148;28;20029;-76
2022/09/16 03:23:18;;;;;;;2.78;1.60;;;;;;;17.91;50.24;91680.31;5065104;28;20387;-76
2022/09/16 03:25:48;;;;;;;3.08;1.30;;;;;;;17.96;50.59;91685.31;5051286;28;20033;-76
2022/09/16 03:28:15;;;;;;;3.78;1.50;;;;;;;17.93;50.91;91691.31;5050382;28;20060;-76
2022/09/16 03:31:09;;;;;;;3.33;1.67;;;;;;;17.92;50.85;91689.78;5034647;28;20017;-76
2022/09/16 03:33:45;;;;;;;1.95;1.20;;;;;;;17.88;48.92;91679.13;5063641;28;20121;-76
2022/09/16 03:36:14;;;;;;;2.80;1.50;;;;;;;17.82;49.83;91679.75;5048202;28;20052;-76
2022/09/16 03:38:42;;;;;;;3.20;1.60;;;;;;;17.78;49.69;91677.00;5029496;28;20057;-76
2022/09/16 03:41:08;;;;;;;2.85;1.40;;;;;;;17.77;49.90;91674.72;5000183;28;20018;-76
2022/09/16 03:43:34;;;;;;;3.28;1.50;;;;;;;17.79;49.62;91664.56;5033341;28;20045;-76
2022/09/16 03:46:00;;;;;;;2.90;1.75;;;;;;;17.86;49.33;91672.66;5025999;28;20037;-76
2022/09/16 03:48:25;;;;;;;2.60;1.40;;;;;;;17.86;49.42;91664.72;5021022;28;20112;-76
2022/09/16 03:50:51;;;;;;;3.30;1.60;;;;;;;17.84;49.83;91662.41;5046021;28;20514;-77
2022/09/16 03:53:16;;;;;;;3.20;1.20;;;;;;;17.88;49.42;91657.19;5014929;28;20038;-75
2022/09/16 03:55:42;;;;;;;4.32;1.65;;;;;;;17.83;49.44;91652.16;5048039;28;20514;-75
2022/09/16 03:58:08;;;;;;;5.97;1.70;;;;;;;17.86;48.74;91660.19;5028244;28;20046;-76
2022/09/16 04:00:33;;;;;;;3.20;1.70;;;;;;;17.88;48.87;91657.19;5032681;28;20518;-76
2022/09/16 04:03:00;;;;;;;4.13;1.60;;;;;;;17.83;49.14;91655.59;5036033;28;20126;-75
2022/09/16 04:05:26;;;;;;;3.50;1.90;;;;;;;17.79;48.90;91648.69;5022664;28;20038;-76
2022/09/16 04:07:52;;;;;;;3.63;1.83;;;;;;;17.76;47.91;91649.38;5016672;28;20500;-75
2022/09/16 04:10:18;;;;;;;3.13;1.60;;;;;;;17.74;48.30;91647.06;5034749;28;20033;-75
2022/09/16 04:12:44;;;;;;;5.45;1.88;;;;;;;17.84;47.16;91645.78;5024201;28;20118;-76
2022/09/16 04:15:09;;;;;;;3.10;1.70;;;;;;;17.82;47.60;91642.69;5043177;28;20120;-75
2022/09/16 04:17:36;;;;;;;3.38;1.75;;;;;;;17.86;45.44;91646.19;5033026;28;20029;-75
2022/09/16 04:20:01;;;;;;;3.95;1.80;;;;;;;17.95;45.90;91638.03;5030518;28;20038;-78
2022/09/16 04:22:29;;;;;;;3.20;1.67;;;;;;;17.91;46.62;91643.25;5032115;28;20172;-76
2022/09/16 04:24:55;;;;;;;3.10;1.70;;;;;;;17.85;47.08;91636.69;5034532;28;20414;-77
2022/09/16 04:27:21;;;;;;;3.65;1.92;;;;;;;17.88;46.56;91633.38;5000264;28;20044;-77
2022/09/16 04:29:46;;;;;;;5.78;1.70;;;;;;;17.88;45.94;91641.31;5035600;28;20419;-78
2022/09/16 04:32:12;;;;;;;3.67;1.92;;;;;;;17.84;46.89;91635.19;5009180;28;20069;-77
2022/09/16 04:34:38;;;;;;;4.70;1.90;;;;;;;17.80;46.46;91636.97;5008932;28;20040;-76
2022/09/16 04:37:03;;;;;;;3.72;2.08;;;;;;;17.82;44.88;91632.13;5031365;28;20040;-76
2022/09/16 04:39:29;;;;;;;2.90;1.60;;;;;;;17.82;45.71;91638.16;5007588;28;20121;-76
2022/09/16 04:41:54;;;;;;;4.90;2.20;;;;;;;17.79;46.21;91641.50;5032828;28;20168;-77
2022/09/16 04:44:20;;;;;;;4.25;2.17;;;;;;;17.76;45.93;91641.41;5027431;28;20083;-77
2022/09/16 04:46:46;;;;;;;4.13;2.10;;;;;;;17.75;45.45;91653.13;5031255;28;20105;-76
2022/09/16 04:49:11;;;;;;;5.00;2.03;;;;;;;17.73;46.01;91645.53;5030209;28;20434;-75
2022/09/16 04:51:37;;;;;;;4.78;2.00;;;;;;;17.77;45.48;91645.63;5013122;28;20136;-76
2022/09/16 04:54:03;;;;;;;4.35;2.40;;;;;;;17.72;45.93;91651.97;5034426;28;20030;-77
2022/09/16 04:56:31;;;;;;;3.70;2.00;;;;;;;17.72;46.35;91649.31;5033399;28;20047;-77
2022/09/16 04:58:59;;;;;;;5.95;1.98;;;;;;;17.74;45.76;91654.25;5030830;28;20353;-76
2022/09/16 05:01:34;;;;;;;3.15;1.80;;;;;;;17.75;45.96;91651.25;5053167;28;20116;-77
2022/09/16 05:04:03;;;;;;;3.10;1.67;;;;;;;17.74;46.34;91648.94;5049106;28;20063;-78
2022/09/16 05:06:40;;;;;;;4.40;1.88;;;;;;;17.84;45.17;91653.72;5059644;28;20474;-77
2022/09/16 05:09:06;;;;;;;5.45;1.75;;;;;;;17.88;45.23;91652.66;5047936;28;20029;-77
2022/09/16 05:11:36;;;;;;;3.03;1.70;;;;;;;17.89;45.55;91656.06;5015839;28;20052;-77
2022/09/16 05:14:04;;;;;;;4.78;1.95;;;;;;;17.84;45.88;91661.66;5040096;28;20038;-77
2022/09/16 05:16:30;;;;;;;4.90;1.73;;;;;;;17.81;46.25;91651.72;5009230;28;20466;-77
2022/09/16 05:18:57;;;;;;;3.22;1.65;;;;;;;17.80;45.82;91661.53;5049797;28;20133;-76
2022/09/16 05:21:24;;;;;;;4.40;1.75;;;;;;;17.77;46.08;91656.19;5032581;28;20065;-77
2022/09/16 05:23:51;;;;;;;3.78;1.95;;;;;;;17.77;45.83;91656.19;5032895;28;20031;-76
2022/09/16 05:26:23;;;;;;;3.65;1.90;;;;;;;17.85;45.39;91653.34;5012433;28;20048;-76
2022/09/16 05:28:50;;;;;;;3.75;1.80;;;;;;;17.86;45.86;91657.53;5030433;28;20064;-76
2022/09/16 05:31:21;;;;;;;3.83;1.80;;;;;;;17.92;44.93;91658.00;5034531;28;20112;-76
2022/09/16 05:34:17;;;;;;;3.40;1.90;;;;;;;17.96;44.89;91658.84;5030902;28;20044;-77
2022/09/16 05:36:46;;;;;;;3.70;1.90;;;;;;;18.03;44.49;91651.00;5028271;28;20125;-77
2022/09/16 05:39:13;;;;;;;7.07;1.98;;;;;;;18.09;44.68;91654.16;5031687;28;20098;-77
2022/09/16 05:41:39;;;;;;;4.10;1.90;;;;;;;18.08;44.50;91648.09;5019812;28;20180;-77
2022/09/16 05:44:07;;;;;;;4.65;1.98;;;;;;;18.10;44.65;91645.84;5031359;28;20089;-78
2022/09/16 05:46:34;;;;;;;4.82;1.80;;;;;;;18.08;44.31;91640.16;5033001;28;20501;-78
2022/09/16 05:48:59;;;;;;;3.50;1.80;;;;;;;18.12;43.97;91645.47;5040155;28;20518;-78
2022/09/16 05:51:26;;;;;;;4.57;2.05;;;;;;;18.07;44.38;91648.44;5028112;28;20072;-77
2022/09/16 05:53:52;;;;;;;3.85;1.90;;;;;;;18.05;44.31;91646.13;5031079;28;20037;-77
2022/09/16 05:56:26;;;;;;;2.88;1.65;;;;;;;18.22;43.98;91654.75;5030813;28;20075;-77
2022/09/16 05:58:54;;;;;;;3.60;1.88;;;;;;;18.37;43.71;91651.19;5004510;28;20049;-78
2022/09/16 06:01:22;;;;;;;3.50;1.73;;;;;;;18.51;43.38;91643.47;5027769;28;20050;-79
2022/09/16 06:03:49;;;;;;;6.13;2.10;;;;;;;19.19;41.81;91649.00;4994700;28;20112;-77
2022/09/16 06:06:25;;;;;;;3.35;1.75;;;;;;;20.61;39.57;91647.50;5032857;28;20099;-77
2022/09/16 06:08:53;;;;;;;3.90;1.88;;;;;;;21.11;37.44;91645.91;5032328;28;20033;-78
2022/09/16 06:11:19;;;;;;;4.65;2.10;;;;;;;21.68;37.16;91645.44;5039856;28;20041;-78
2022/09/16 06:13:45;;;;;;;3.63;1.85;;;;;;;22.80;35.11;91649.81;5034755;28;20083;-79
2022/09/16 06:16:13;;;;;;;3.97;1.95;;;;;;;23.74;33.01;91641.63;5028934;28;20105;-78
2022/09/16 06:18:39;;;;;;;4.68;2.08;;;;;;;24.15;32.18;91636.47;5034716;28;20021;-79
2022/09/16 06:21:10;;;;;;;3.70;1.98;;;;;;;24.99;31.28;91638.16;5031783;28;20467;-78
2022/09/16 06:23:37;;;;;;;6.00;2.45;;;;;;;25.73;30.22;91637.81;5032222;28;20068;-79
2022/09/16 06:26:04;;;;;;;3.72;1.92;;;;;;;26.47;28.73;91638.03;5048577;28;20158;-79
2022/09/16 06:28:30;;;;;;;3.75;2.05;;;;;;;27.02;28.14;91638.75;5033098;28;20053;-78
2022/09/16 06:31:13;;;;;;;3.75;2.20;;;;;;;27.50;27.98;91634.84;5032819;28;20037;-79
2022/09/16 06:33:39;;;;;;;4.85;2.20;;;;;;;27.94;26.93;91632.09;5039708;28;20068;-79
2022/09/16 06:36:06;;;;;;;3.92;2.17;;;;;;;28.54;25.77;91634.69;5036911;28;20033;-79
2022/09/16 06:38:32;;;;;;;3.78;2.10;;;;;;;29.10;24.60;91631.84;5054313;28;20033;-79
2022/09/16 06:41:03;;;;;;;3.33;2.10;;;;;;;29.10;24.86;91637.25;5050804;28;20048;-79
2022/09/16 06:43:29;;;;;;;4.13;2.13;;;;;;;29.47;24.33;91644.00;5020096;28;20041;-79
2022/09/16 06:45:59;;;;;;;6.68;2.35;;;;;;;30.12;23.88;91641.50;5036603;28;20387;-79
2022/09/16 06:48:26;;;;;;;6.57;2.58;;;;;;;29.63;23.31;91624.31;5036330;28;20037;-79
2022/09/16 06:51:04;;;;;;;3.53;2.10;;;;;;;27.72;25.36;91642.47;5020343;28;20037;-79
2022/09/16 06:53:31;;;;;;;3.78;2.10;;;;;;;26.42;27.15;91643.09;5035987;28;20037;-79
2022/09/16 06:56:01;;;;;;;6.25;2.30;;;;;;;25.93;28.13;91644.09;5049755;28;20491;-79
2022/09/16 06:58:28;;;;;;;3.70;2.10;;;;;;;25.25;29.04;91639.50;5008311;28;20040;-79
2022/09/16 07:00:55;;;;;;;3.95;2.30;;;;;;;26.69;28.52;91643.09;5032670;28;20117;-78
2022/09/16 07:03:21;;;;;;;5.10;2.40;;;;;;;27.44;27.43;91643.78;5033992;28;20033;-79
2022/09/16 07:05:59;;;;;;;4.03;2.20;;;;;;;26.77;26.99;91647.19;5033048;28;20048;-79
2022/09/16 07:08:24;;;;;;;3.90;2.22;;;;;;;26.03;27.68;91645.16;5053633;28;20037;-78
2022/09/16 07:11:04;;;;;;;3.42;2.08;;;;;;;25.38;29.82;91645.09;5053897;28;20052;-78
2022/09/16 07:13:30;;;;;;;4.30;2.30;;;;;;;25.03;29.60;91644.25;5053887;28;20025;-77
2022/09/16 07:16:00;;;;;;;3.95;2.20;;;;;;;25.13;30.63;91640.72;5052061;28;20044;-79
2022/09/16 07:18:28;;;;;;;5.25;2.10;;;;;;;25.64;30.34;91640.97;5053436;28;20028;-78
2022/09/16 07:21:01;;;;;;;4.43;2.10;;;;;;;26.13;29.62;91657.66;5053395;28;20021;-77
2022/09/16 07:23:31;;;;;;;5.05;2.00;;;;;;;25.98;30.42;91652.88;5053653;28;20048;-78
2022/09/16 07:26:08;;;;;;;4.57;2.30;;;;;;;26.22;30.96;91654.47;5048275;28;20029;-79
2022/09/16 07:28:34;;;;;;;4.05;2.10;;;;;;;26.28;29.22;91652.09;5053812;28;20032;-79
2022/09/16 07:31:02;;;;;;;3.80;2.10;;;;;;;26.16;29.32;91645.34;5053596;28;20063;-77
2022/09/16 07:33:28;;;;;;;3.80;2.20;;;;;;;26.31;30.22;91638.63;5035027;28;20041;-78
2022/09/16 07:35:58;;;;;;;4.47;2.20;;;;;;;26.38;30.85;91643.88;5053485;28;20052;-79
2022/09/16 07:38:23;;;;;;;4.15;2.47;;;;;;;26.59;26.87;91639.41;5048063;28;20052;-79
2022/09/16 07:40:49;;;;;;;4.82;2.30;;;;;;;26.73;29.03;91647.25;5031883;28;20472;-79
2022/09/16 07:43:14;;;;;;;3.85;2.22;;;;;;;26.66;28.59;91652.72;5052235;28;20086;-78
2022/09/16 07:45:40;;;;;;;4.13;2.20;;;;;;;26.40;28.91;91648.09;5035435;28;20047;-77
2022/09/16 07:48:05;;;;;;;4.28;2.35;;;;;;;25.32;29.96;91654.72;5049614;28;20487;-78
2022/09/16 07:50:31;;;;;;;3.65;1.95;;;;;;;25.58;30.55;91660.56;5018435;28;20080;-78
2022/09/16 07:52:57;;;;;;;4.88;2.30;;;;;;;25.84;30.16;91659.91;5019068;28;20045;-79
2022/09/16 07:55:22;;;;;;;3.92;2.13;;;;;;;25.83;30.24;91654.97;5053030;28;20029;-77
2022/09/16 07:57:48;;;;;;;4.97;2.05;;;;;;;24.73;32.82;91656.38;5053361;28;20123;-79
2022/09/16 08:00:15;;;;;;;4.30;2.05;;;;;;;24.73;38.60;91658.28;5048102;28;20041;-78
2022/09/16 08:02:41;;;;;;;3.67;2.00;;;;;;;24.74;35.39;91662.47;5042247;28;20024;-78
2022/09/16 08:05:06;;;;;;;4.13;2.30;;;;;;;24.91;34.28;91660.81;5035806;28;20479;-79
2022/09/16 08:07:32;;;;;;;4.13;1.88;;;;;;;25.04;37.55;91664.53;5053323;28;20406;-78
2022/09/16 08:09:57;;;;;;;4.65;1.90;;;;;;;24.12;37.71;91655.22;5052051;28;20471;-78
2022/09/16 08:12:23;;;;;;;3.60;2.10;;;;;;;23.66;33.58;91662.25;5034158;28;20045;-78
2022/09/16 08:14:49;;;;;;;5.55;2.20;;;;;;;23.56;38.53;91661.16;5029447;28;20502;-78
2022/09/16 08:17:15;;;;;;;3.05;1.98;;;;;;;23.44;41.68;91656.22;5031567;28;20037;-78
2022/09/16 08:19:40;;;;;;;5.20;2.10;;;;;;;23.15;44.12;91672.31;5031222;28;20152;-78
2022/09/16 08:22:06;;;;;;;6.22;2.33;;;;;;;22.72;40.20;91671.53;5000256;28;20318;-78
2022/09/16 08:24:32;;;;;;;6.32;2.20;;;;;;;22.93;41.86;91673.47;5021406;28;20025;-78
2022/09/16 08:26:57;;;;;;;4.57;2.10;;;;;;;22.48;45.59;91676.50;5014226;28;20059;-77
2022/09/16 08:29:24;;;;;;;3.53;1.77;;;;;;;22.03;48.11;91674.09;5031640;28;20041;-77
2022/09/16 08:31:50;;;;;;;4.07;1.75;;;;;;;22.28;45.28;91678.75;5031488;28;20120;-77
2022/09/16 08:34:16;;;;;;;5.82;2.17;;;;;;;22.18;45.64;91682.91;5043310;28;20038;-77
2022/09/16 08:36:42;;;;;;;4.20;2.08;;;;;;;22.32;45.44;91687.53;5031519;28;20403;-77
2022/09/16 08:39:09;;;;;;;3.78;2.00;;;;;;;22.51;43.68;91682.97;5031061;28;20048;-77
2022/09/16 08:41:50;;;;;;;5.95;2.00;;;;;;;22.31;43.50;91672.66;5030260;28;20064;-78
2022/09/16 08:44:51;;;;;;;5.75;2.38;;;;;;;22.57;43.05;91676.88;5033814;28;20495;-79
2022/09/16 08:47:40;;;;;;;5.30;2.88;;;;;;;22.47;43.00;91677.63;5055072;28;20045;-77
2022/09/16 08:50:14;;;;;;;4.00;2.17;;;;;;;22.72;44.89;91680.34;5037753;28;20040;-77
2022/09/16 08:52:42;;;;;;;4.10;1.98;;;;;;;22.90;46.81;91677.66;5056169;28;20040;-79
2022/09/16 08:55:22;;;;;;;3.70;2.08;;;;;;;22.97;45.76;91677.66;5020786;28;20154;-79
2022/09/16 08:57:58;;;;;;;4.97;2.40;;;;;;;23.00;43.78;91676.16;5056066;28;20032;-79
2022/09/16 09:00:23;;;;;;;4.15;2.35;;;;;;;23.35;42.27;91678.00;5055673;28;20041;-79
2022/09/16 09:03:04;;;;;;;5.30;2.70;;;;;;;23.32;43.46;91678.75;5038172;28;20102;-79
2022/09/16 09:05:32;;;;;;;5.10;2.22;;;;;;;23.64;42.63;91680.59;5037712;28;20128;-77
2022/09/16 09:08:04;;;;;;;3.65;2.10;;;;;;;24.18;39.93;91673.13;5048127;28;20498;-79
2022/09/16 09:10:48;;;;;;;4.00;2.30;;;;;;;24.61;40.77;91672.91;5037500;28;20035;-79
2022/09/16 09:14:02;;;;;;;5.78;2.40;;;;;;;24.97;37.33;91663.81;5056151;28;20039;-79
2022/09/16 09:16:46;;;;;;;3.75;2.17;;;;;;;25.19;38.43;91651.03;5025585;28;20038;-77
2022/09/16 09:19:57;;;;;;;3.38;2.00;;;;;;;24.91;40.68;91663.50;5036144;28;20040;-78
2022/09/16 09:22:31;;;;;;;4.80;2.38;;;;;;;24.06;44.29;91665.56;5034216;28;20033;-77
2022/09/16 09:25:41;;;;;;;6.13;2.33;;;;;;;23.81;44.39;91655.00;5034968;28;20120;-78
2022/09/16 09:28:28;;;;;;;3.55;2.03;;;;;;;23.78;44.29;91655.78;5017977;28;20088;-78
2022/09/16 09:31:20;;;;;;;6.22;2.20;;;;;;;23.62;47.40;91656.94;5017669;28;20052;-79
2022/09/16 09:34:10;;;;;;;5.75;2.03;;;;;;;23.66;49.08;91652.34;5018155;28;20048;-79
2022/09/16 09:36:55;;;;;;;5.88;2.40;;;;;;;23.42;50.70;91653.97;5035076;28;20040;-78
2022/09/16 09:39:31;;;;;;;4.45;2.30;;;;;;;23.68;50.14;91644.69;5033751;28;20037;-78
2022/09/16 09:42:14;;;;;;;4.40;2.30;;;;;;;23.59;49.01;91646.25;5016395;28;20052;-78
2022/09/16 09:44:56;;;;;;;4.47;2.10;;;;;;;23.49;49.88;91640.56;5035048;28;20119;-77
2022/09/16 09:47:56;;;;;;;9.48;2.20;;;;;;;23.61;48.46;91639.38;5018061;28;20037;-79
2022/09/16 09:50:27;;;;;;;3.70;2.00;;;;;;;23.33;47.15;91640.25;4998140;28;20030;-78
2022/09/16 09:53:03;;;;;;;4.40;2.13;;;;;;;23.16;49.06;91636.47;5047700;28;20029;-79
2022/09/16 09:55:31;;;;;;;3.63;1.95;;;;;;;23.31;48.48;91629.19;5055177;28;20045;-78
2022/09/16 09:58:19;;;;;;;4.03;2.28;;;;;;;23.37;48.55;91630.31;5035975;28;20036;-78
2022/09/16 10:00:44;;;;;;;6.28;2.30;;;;;;;23.27;46.58;91631.09;5028513;28;20068;-80
2022/09/16 10:03:17;;;;;;;5.18;2.20;;;;;;;23.05;46.62;91625.81;5000815;28;20403;-80
2022/09/16 10:05:45;;;;;;;3.80;1.85;;;;;;;22.88;47.89;91626.59;5027851;28;20061;-80
2022/09/16 10:08:23;;;;;;;3.80;2.10;;;;;;;22.90;47.08;91629.63;5001277;28;20387;-79
2022/09/16 10:10:55;;;;;;;6.38;2.50;;;;;;;23.00;45.98;91620.88;5031136;28;20033;-80
2022/09/16 10:13:21;;;;;;;;;;;;;;;23.06;47.00;91627.34;5036909;28;20046;-79
2022/09/16 10:15:49;;;;;;;8.05;2.40;;;;;;;23.30;46.78;91624.97;5036907;28;19917;-78
2022/09/16 10:18:22;;;;;;;5.07;2.25;;;;;;;23.49;45.71;91616.53;5042954;28;20025;-79
2022/09/16 10:21:03;;;;;;;4.55;2.20;;;;;;;23.43;45.20;91620.75;5043137;28;20055;-80
2022/09/16 10:23:30;;;;;;;6.43;2.42;;;;;;;23.36;44.96;91618.09;5020223;28;20041;-79
2022/09/16 10:26:15;;;;;;;4.47;2.42;;;;;;;23.35;44.72;91615.81;5043981;28;20029;-80
2022/09/16 10:28:41;;;;;;;4.50;2.38;;;;;;;23.60;46.22;91605.81;5038120;28;20037;-79
2022/09/16 10:31:07;;;;;;;4.13;2.20;;;;;;;23.94;45.01;91601.88;5055709;28;20467;-80
2022/09/16 10:33:43;;;;;;;3.75;2.25;;;;;;;24.16;41.21;91597.91;5051129;28;20119;-79
2022/09/16 10:36:17;;;;;;;5.10;2.20;;;;;;;24.33;42.44;91600.84;5039991;28;20036;-80
2022/09/16 10:38:55;;;;;;;3.80;2.10;;;;;;;24.71;42.52;91597.13;5038058;28;20032;-80
2022/09/16 10:41:27;;;;;;;4.10;2.03;;;;;;;25.05;40.59;91599.13;5042846;28;20036;-81
2022/09/16 10:44:17;;;;;;;4.97;2.33;;;;;;;25.25;38.16;91593.97;5036777;28;20129;-81
2022/09/16 10:47:01;;;;;;;3.85;2.10;;;;;;;25.47;37.99;91581.09;5025325;28;20483;-80
2022/09/16 10:50:00;;;;;;;4.60;2.70;;;;;;;25.75;39.59;91588.00;5028580;28;20044;-80
2022/09/16 10:52:31;;;;;;;4.18;2.25;;;;;;;25.74;35.04;91578.47;5021102;28;20550;-79
2022/09/16 10:55:12;;;;;;;5.80;2.40;;;;;;;25.70;36.58;91580.44;5035263;28;20084;-80
2022/09/16 10:57:40;;;;;;;4.05;2.33;;;;;;;25.74;36.80;91583.81;5040875;28;20077;-81
2022/09/16 11:00:14;;;;;;;5.43;2.50;;;;;;;25.94;31.48;91578.63;5038599;28;20091;-80
2022/09/16 11:03:04;;;;;;;4.53;2.53;;;;;;;25.98;34.24;91578.56;5035753;28;20418;-80
2022/09/16 11:05:47;;;;;;;5.03;2.30;;;;;;;25.99;33.31;91582.00;5057540;28;20045;-80
2022/09/16 11:08:31;;;;;;;3.95;2.33;;;;;;;25.51;34.57;91571.09;5016551;28;20042;-80
2022/09/16 11:11:32;;;;;;;6.10;2.55;;;;;;;25.29;36.30;91572.50;5025713;28;20501;-79
2022/09/16 11:14:10;;;;;;;5.20;2.22;;;;;;;25.36;36.04;91577.78;5021380;28;20334;-80
2022/09/16 11:16:55;;;;;;;4.63;2.33;;;;;;;25.43;35.31;91575.03;5019585;28;20041;-80
2022/09/16 11:19:42;;;;;;;3.78;2.20;;;;;;;25.55;34.34;91569.13;5045578;28;20052;-80
2022/09/16 11:22:13;;;;;;;5.85;2.40;;;;;;;25.80;36.15;91569.97;5031464;28;20210;-79
2022/09/16 11:24:54;;;;;;;6.45;2.40;;;;;;;25.82;36.25;91571.09;5050515;28;20052;-79
2022/09/16 11:27:22;;;;;;;4.28;2.50;;;;;;;25.94;36.43;91573.25;5046300;28;20410;-79
2022/09/16 11:29:51;;;;;;;4.93;2.10;;;;;;;26.05;37.26;91570.44;5051272;28;20104;-79
2022/09/16 11:32:50;;;;;;;3.90;2.20;;;;;;;26.07;36.26;91568.09;5034052;28;20544;-79
2022/09/16 11:35:34;;;;;;;4.13;2.20;;;;;;;26.10;35.71;91567.28;5042770;28;20033;-78
2022/09/16 11:38:09;;;;;;;4.05;2.42;;;;;;;26.24;36.23;91565.56;5057905;28;20113;-78
2022/09/16 11:40:59;;;;;;;5.20;2.38;;;;;;;26.23;37.80;91570.19;5047932;28;20041;-79
2022/09/16 11:43:49;;;;;;;4.80;2.40;;;;;;;26.47;34.20;91559.47;5049856;28;20041;-80
2022/09/16 11:46:37;;;;;;;4.90;2.33;;;;;;;26.13;36.28;91565.72;5048483;28;20028;-80
2022/09/16 11:49:21;;;;;;;4.65;2.50;;;;;;;26.04;33.73;91565.47;5043880;28;20032;-79
2022/09/16 11:51:58;;;;;;;4.03;2.35;;;;;;;25.82;38.74;91559.59;5049345;28;20033;-79
2022/09/16 11:55:09;;;;;;;5.30;2.50;;;;;;;25.79;36.81;91560.44;5052744;28;20139;-80
2022/09/16 11:57:38;;;;;;;4.18;2.50;;;;;;;26.07;35.67;91557.34;5029023;28;20044;-79
2022/09/16 12:00:09;;;;;;;6.28;2.28;;;;;;;25.83;39.20;91545.81;5031403;28;20033;-79